Time;durP1;ratioP1;P1;durP2;ratioP2;P2;SDS_P1;SDS_P2;PMS_P1;PMS_P2;Temp;Humidity;BMP_temperature;BMP_pressure;BME280_temperature;BME280_humidity;BME280_pressure;Samples;Min_cycle;Max_cycle;Signal;HPM_P1;HPM_P2
2021/09/08 00:00:31;;;;;;;8.00;5.53;;;;;;;21.74;57.35;101896.97;5054366;28;20478;-68
2021/09/08 00:03:03;;;;;;;7.10;5.07;;;;;;;21.74;57.35;101893.47;5053787;28;20036;-68
2021/09/08 00:05:29;;;;;;;7.25;5.25;;;;;;;21.73;57.31;101892.66;5054138;28;20036;-67
2021/09/08 00:07:54;;;;;;;7.70;5.65;;;;;;;21.73;57.37;101887.34;5053929;28;20025;-69
2021/09/08 00:10:20;;;;;;;7.28;5.03;;;;;;;21.71;57.23;101889.28;5053529;28;20571;-68
2021/09/08 00:12:45;;;;;;;7.82;5.57;;;;;;;21.72;57.39;101888.28;5053933;28;20029;-70
2021/09/08 00:15:12;;;;;;;7.53;5.30;;;;;;;21.72;57.46;101885.66;5053213;28;20028;-68
2021/09/08 00:17:38;;;;;;;7.65;5.88;;;;;;;21.72;57.35;101885.66;5053187;28;20266;-69
2021/09/08 00:20:05;;;;;;;7.40;5.43;;;;;;;21.71;57.34;101881.31;5053525;28;20476;-68
2021/09/08 00:22:31;;;;;;;7.63;5.57;;;;;;;21.71;57.29;101880.47;5054076;28;20031;-68
2021/09/08 00:24:57;;;;;;;8.50;5.78;;;;;;;21.70;57.29;101876.97;5052952;28;20049;-68
2021/09/08 00:27:23;;;;;;;8.25;5.07;;;;;;;21.70;57.29;101882.28;5054031;28;20064;-68
2021/09/08 00:29:48;;;;;;;8.27;5.75;;;;;;;21.70;57.31;101874.31;5053328;28;20452;-68
2021/09/08 00:32:16;;;;;;;7.50;5.50;;;;;;;21.70;57.18;101865.53;5053017;28;20033;-68
2021/09/08 00:34:42;;;;;;;7.70;5.43;;;;;;;21.69;57.31;101869.13;5053547;28;20278;-69
2021/09/08 00:37:08;;;;;;;7.80;5.53;;;;;;;21.69;57.34;101863.84;5053395;28;20548;-68
2021/09/08 00:39:33;;;;;;;8.82;5.40;;;;;;;21.69;57.15;101866.47;5052925;28;20365;-69
2021/09/08 00:42:01;;;;;;;7.80;5.40;;;;;;;21.68;57.23;101863.00;5053366;28;20036;-68
2021/09/08 00:44:27;;;;;;;7.68;5.65;;;;;;;21.67;57.16;101863.94;5053533;28;20793;-68
2021/09/08 00:46:52;;;;;;;7.45;5.15;;;;;;;21.67;57.17;101856.00;5052249;28;20080;-68
2021/09/08 00:49:17;;;;;;;7.93;5.80;;;;;;;21.67;57.03;101861.31;5053342;28;20031;-68
2021/09/08 00:51:45;;;;;;;7.47;5.40;;;;;;;21.67;57.21;101858.66;5053323;28;20472;-68
2021/09/08 00:54:15;;;;;;;7.60;5.72;;;;;;;21.66;57.00;101853.47;5052376;28;20932;-68
2021/09/08 00:56:42;;;;;;;8.27;5.85;;;;;;;21.67;57.39;101856.00;5053257;28;20116;-68
2021/09/08 00:59:07;;;;;;;8.10;5.93;;;;;;;21.66;57.08;101851.66;5052689;28;20045;-68
2021/09/08 01:01:33;;;;;;;8.07;5.50;;;;;;;21.64;56.84;101845.63;5052280;28;20032;-68
2021/09/08 01:04:01;;;;;;;7.97;5.93;;;;;;;21.66;56.97;101848.16;5052681;28;20025;-67
2021/09/08 01:06:26;;;;;;;8.48;5.65;;;;;;;21.65;57.30;101842.03;5052549;28;20108;-69
2021/09/08 01:08:53;;;;;;;8.90;5.80;;;;;;;21.64;57.18;101847.44;5052655;28;20108;-68
2021/09/08 01:11:22;;;;;;;9.13;6.55;;;;;;;21.65;57.20;101843.81;5053102;28;20025;-68
2021/09/08 01:13:47;;;;;;;7.30;5.55;;;;;;;21.63;57.17;101846.59;5052032;28;20111;-69
2021/09/08 01:16:13;;;;;;;8.30;6.25;;;;;;;21.64;56.94;101845.63;5052920;28;20496;-69
2021/09/08 01:18:41;;;;;;;8.05;5.80;;;;;;;21.64;56.96;101848.28;5052817;28;20021;-69
2021/09/08 01:21:06;;;;;;;8.05;5.70;;;;;;;21.63;57.09;101851.88;5051931;28;20017;-68
2021/09/08 01:23:32;;;;;;;8.53;5.83;;;;;;;21.63;57.15;101843.09;5052736;28;20078;-69
2021/09/08 01:26:02;;;;;;;9.95;6.00;;;;;;;21.63;56.84;101845.75;5051657;28;20289;-70
2021/09/08 01:28:28;;;;;;;8.82;6.35;;;;;;;21.61;56.92;101843.22;5051860;28;20112;-69
2021/09/08 01:30:58;;;;;;;8.30;5.93;;;;;;;21.63;56.85;101846.59;5052368;28;20051;-67
2021/09/08 01:33:23;;;;;;;8.00;6.10;;;;;;;21.61;56.61;101842.38;5052532;28;20554;-68
2021/09/08 01:35:49;;;;;;;9.00;5.93;;;;;;;21.61;56.94;101848.53;5051864;28;20036;-68
2021/09/08 01:38:15;;;;;;;8.85;6.22;;;;;;;21.61;57.13;101851.19;5052555;28;20032;-68
2021/09/08 01:40:41;;;;;;;7.38;5.70;;;;;;;21.60;56.72;101843.34;5052465;28;20086;-67
2021/09/08 01:43:06;;;;;;;9.10;6.10;;;;;;;21.60;56.86;101838.88;5051313;28;20025;-68
2021/09/08 01:45:31;;;;;;;8.97;5.73;;;;;;;21.59;56.93;101831.91;5052067;28;20028;-69
2021/09/08 01:47:56;;;;;;;8.02;5.53;;;;;;;21.59;57.03;101831.03;5051680;28;20746;-68
2021/09/08 01:50:23;;;;;;;8.00;6.03;;;;;;;21.59;56.75;101834.56;5051724;28;20051;-69
2021/09/08 01:52:52;;;;;;;8.32;5.72;;;;;;;21.60;56.99;101833.56;5051975;28;20729;-68
2021/09/08 01:55:17;;;;;;;7.97;5.45;;;;;;;21.59;57.13;101831.91;5052259;28;20017;-69
2021/09/08 01:57:43;;;;;;;8.68;5.78;;;;;;;21.60;56.68;101828.25;5051469;28;20025;-68
2021/09/08 02:00:12;;;;;;;9.68;5.65;;;;;;;21.58;56.92;101821.41;5051844;28;20041;-68
2021/09/08 02:02:37;;;;;;;8.50;5.70;;;;;;;21.58;56.87;101818.75;5051255;28;20484;-68
2021/09/08 02:05:03;;;;;;;8.45;5.70;;;;;;;21.58;56.73;101821.41;5052037;28;20063;-68
2021/09/08 02:07:28;;;;;;;8.15;5.63;;;;;;;21.55;57.05;101818.06;5052164;28;20025;-68
2021/09/08 02:09:57;;;;;;;8.57;6.13;;;;;;;21.58;56.81;101821.41;5050954;28;20037;-69
2021/09/08 02:12:22;;;;;;;9.27;6.00;;;;;;;21.57;56.79;101820.59;5051972;28;20025;-68
2021/09/08 02:14:50;;;;;;;9.90;6.53;;;;;;;21.57;56.85;101809.97;5051687;28;20104;-67
2021/09/08 02:17:16;;;;;;;9.50;6.40;;;;;;;21.56;56.66;101811.75;5051056;28;20020;-68
2021/09/08 02:19:41;;;;;;;8.68;6.28;;;;;;;21.55;56.86;101804.78;5052144;28;20032;-67
2021/09/08 02:22:06;;;;;;;9.27;5.90;;;;;;;21.55;56.58;101807.44;5051790;28;20025;-68
2021/09/08 02:24:32;;;;;;;9.60;6.07;;;;;;;21.55;56.70;101801.28;5051281;28;20497;-69
2021/09/08 02:26:57;;;;;;;10.00;6.05;;;;;;;21.55;56.88;101807.44;5051722;28;20086;-68
2021/09/08 02:29:23;;;;;;;8.73;6.05;;;;;;;21.56;56.51;101800.31;5051828;28;20119;-69
2021/09/08 02:31:48;;;;;;;8.95;5.85;;;;;;;21.55;56.81;101803.94;5051062;28;20031;-68
2021/09/08 02:34:13;;;;;;;8.35;5.65;;;;;;;21.54;56.50;101800.44;5052173;28;20353;-68
2021/09/08 02:36:38;;;;;;;7.53;5.57;;;;;;;21.55;56.38;101811.88;5052363;28;20028;-68
2021/09/08 02:39:06;;;;;;;8.38;6.13;;;;;;;21.54;56.68;101802.25;5054976;28;20783;-69
2021/09/08 02:41:34;;;;;;;8.63;6.22;;;;;;;21.54;56.65;101802.25;5055873;28;20028;-68
2021/09/08 02:44:00;;;;;;;8.40;5.75;;;;;;;21.52;56.56;101797.09;5055440;28;20080;-67
2021/09/08 02:46:28;;;;;;;7.65;5.90;;;;;;;21.52;56.66;101802.38;5054872;28;20510;-68
2021/09/08 02:48:53;;;;;;;8.85;5.85;;;;;;;21.53;56.71;101803.22;5055415;28;20388;-68
2021/09/08 02:51:19;;;;;;;8.90;5.80;;;;;;;21.53;56.59;101800.56;5055818;28;20507;-68
2021/09/08 02:53:47;;;;;;;8.85;6.13;;;;;;;21.51;56.63;101791.91;5054898;28;20080;-68
2021/09/08 02:56:12;;;;;;;8.07;5.95;;;;;;;21.53;56.71;101798.75;5055476;28;20040;-70
2021/09/08 02:58:40;;;;;;;9.27;6.57;;;;;;;21.53;56.73;101797.91;5055555;28;20044;-69
2021/09/08 03:01:05;;;;;;;8.80;6.13;;;;;;;21.50;56.59;101787.56;5054584;28;20025;-68
2021/09/08 03:03:30;;;;;;;9.65;5.75;;;;;;;21.52;56.73;101796.22;5055724;28;20021;-69
2021/09/08 03:05:57;;;;;;;8.80;6.45;;;;;;;21.52;56.59;101802.38;5054555;28;20033;-67
2021/09/08 03:08:22;;;;;;;8.55;6.07;;;;;;;21.51;56.50;101795.38;5055475;28;20104;-68
2021/09/08 03:10:50;;;;;;;8.60;5.70;;;;;;;21.52;56.78;101791.78;5055102;28;20547;-68
2021/09/08 03:13:17;;;;;;;8.30;5.85;;;;;;;21.52;56.78;101791.78;5054745;28;20273;-67
2021/09/08 03:15:43;;;;;;;8.57;6.18;;;;;;;21.49;56.64;101792.03;5055244;28;20495;-68
2021/09/08 03:18:08;;;;;;;8.00;5.85;;;;;;;21.51;56.80;101792.72;5055402;28;20049;-69
2021/09/08 03:20:46;;;;;;;8.38;6.13;;;;;;;21.52;56.50;101793.56;5054584;28;20021;-69
2021/09/08 03:23:11;;;;;;;7.90;5.88;;;;;;;21.51;56.47;101794.56;5055030;28;20025;-69
2021/09/08 03:25:37;;;;;;;10.40;6.63;;;;;;;21.44;56.62;101778.25;5055113;28;20530;-68
2021/09/08 03:28:02;;;;;;;8.82;6.35;;;;;;;21.50;56.59;101791.03;5054497;28;20418;-69
2021/09/08 03:30:28;;;;;;;7.32;5.47;;;;;;;21.50;56.52;101783.09;5055145;28;20031;-69
2021/09/08 03:32:53;;;;;;;8.00;5.90;;;;;;;21.50;56.78;101784.91;5054607;28;20510;-69
2021/09/08 03:35:20;;;;;;;7.45;5.80;;;;;;;21.48;56.58;101779.72;5053970;28;20021;-69
2021/09/08 03:37:45;;;;;;;8.80;5.93;;;;;;;21.50;56.41;101782.25;5054866;28;20067;-69
2021/09/08 03:40:11;;;;;;;9.70;6.07;;;;;;;21.48;56.54;101785.03;5054487;28;20048;-68
2021/09/08 03:42:39;;;;;;;9.40;6.35;;;;;;;21.48;56.41;101784.16;5053521;28;20029;-69
2021/09/08 03:45:07;;;;;;;8.90;6.57;;;;;;;21.48;56.47;101779.72;5054529;28;20021;-68
2021/09/08 03:47:33;;;;;;;8.27;6.30;;;;;;;21.47;56.36;101775.34;5054652;28;20048;-70
2021/09/08 03:49:58;;;;;;;9.43;6.45;;;;;;;21.46;56.28;101771.03;5052633;28;20353;-69
2021/09/08 03:52:23;;;;;;;9.33;6.23;;;;;;;21.46;56.28;101773.69;5054660;28;20163;-69
2021/09/08 03:54:52;;;;;;;9.43;6.75;;;;;;;21.47;56.41;101763.91;5054236;28;20274;-68
2021/09/08 03:57:17;;;;;;;9.18;6.47;;;;;;;21.46;56.22;101770.16;5053921;28;20021;-68
2021/09/08 03:59:42;;;;;;;8.95;6.72;;;;;;;21.47;56.46;101771.84;5054527;28;20048;-69
2021/09/08 04:02:08;;;;;;;8.52;6.07;;;;;;;21.44;56.42;101761.50;5053539;28;20025;-68
2021/09/08 04:04:33;;;;;;;8.00;5.88;;;;;;;21.47;56.28;101766.56;5054599;28;20383;-69
2021/09/08 04:07:02;;;;;;;8.73;6.35;;;;;;;21.45;56.49;101761.38;5054194;28;20377;-69
2021/09/08 04:09:29;;;;;;;8.10;6.00;;;;;;;21.43;56.22;101760.66;5053513;28;20613;-68
2021/09/08 04:11:55;;;;;;;9.07;6.13;;;;;;;21.46;56.34;101770.16;5054019;28;20028;-69
2021/09/08 04:14:20;;;;;;;9.30;6.40;;;;;;;21.45;56.03;101765.84;5054314;28;20090;-69
2021/09/08 04:16:45;;;;;;;8.13;5.90;;;;;;;21.44;56.07;101757.03;5053492;28;20419;-68
2021/09/08 04:19:10;;;;;;;9.13;6.75;;;;;;;21.44;56.25;101761.50;5053943;28;20266;-69
2021/09/08 04:21:36;;;;;;;7.97;5.85;;;;;;;21.45;56.29;101757.88;5054106;28;20024;-69
2021/09/08 04:24:01;;;;;;;9.02;6.72;;;;;;;21.44;56.39;101759.69;5053025;28;20159;-69
2021/09/08 04:26:29;;;;;;;7.93;5.70;;;;;;;21.43;56.17;101750.06;5054182;28;20032;-68
2021/09/08 04:28:55;;;;;;;9.70;6.82;;;;;;;21.44;56.22;101754.38;5053929;28;20032;-68
2021/09/08 04:31:20;;;;;;;9.18;6.05;;;;;;;21.43;56.13;101751.84;5053476;28;20032;-67
2021/09/08 04:33:45;;;;;;;9.80;6.13;;;;;;;21.43;56.19;101750.06;5053945;28;20044;-68
2021/09/08 04:36:11;;;;;;;8.45;6.20;;;;;;;21.43;56.33;101751.84;5053805;28;20270;-68
2021/09/08 04:38:39;;;;;;;7.60;5.45;;;;;;;21.43;56.30;101746.53;5053175;28;20021;-69
2021/09/08 04:41:04;;;;;;;9.15;6.13;;;;;;;21.42;56.15;101753.66;5053158;28;20451;-68
2021/09/08 04:43:30;;;;;;;8.80;6.03;;;;;;;21.42;56.19;101753.66;5053560;28;20029;-69
2021/09/08 04:46:07;;;;;;;9.43;6.43;;;;;;;21.43;56.38;101755.34;5052164;28;20057;-69
2021/09/08 04:48:32;;;;;;;8.30;5.90;;;;;;;21.42;56.19;101751.00;5053248;28;20025;-68
2021/09/08 04:50:58;;;;;;;8.35;5.97;;;;;;;21.42;56.18;101753.66;5052930;28;20442;-68
2021/09/08 04:53:23;;;;;;;10.45;6.43;;;;;;;21.41;56.12;101749.31;5052869;28;20491;-67
2021/09/08 04:55:51;;;;;;;8.00;5.80;;;;;;;21.38;56.13;101747.78;5057593;28;20346;-68
2021/09/08 04:58:16;;;;;;;9.20;6.32;;;;;;;21.41;56.09;101748.47;5063454;28;20360;-68
2021/09/08 05:00:42;;;;;;;7.68;5.80;;;;;;;21.40;56.11;101745.00;5062272;28;20029;-68
2021/09/08 05:03:08;;;;;;;9.20;6.10;;;;;;;21.40;56.19;101747.66;5063101;28;20383;-68
2021/09/08 05:05:36;;;;;;;9.75;6.35;;;;;;;21.41;56.27;101743.19;5062677;28;20033;-67
2021/09/08 05:08:02;;;;;;;8.73;6.30;;;;;;;21.40;56.12;101741.50;5061658;28;20021;-68
2021/09/08 05:10:30;;;;;;;9.13;6.78;;;;;;;21.41;56.19;101743.19;5053168;28;20029;-68
2021/09/08 05:12:55;;;;;;;9.35;6.28;;;;;;;21.39;56.04;101738.00;5051564;28;20075;-67
2021/09/08 05:15:20;;;;;;;9.30;6.53;;;;;;;21.37;56.17;101734.63;5052739;28;20017;-69
2021/09/08 05:17:45;;;;;;;8.65;6.50;;;;;;;21.38;56.21;101737.16;5053311;28;20151;-69
2021/09/08 05:20:20;;;;;;;8.73;6.63;;;;;;;21.37;56.15;101735.47;5051337;28;20025;-69
2021/09/08 05:22:46;;;;;;;8.35;6.57;;;;;;;21.35;56.01;101729.47;5052588;28;20282;-68
2021/09/08 05:25:11;;;;;;;8.57;6.60;;;;;;;21.38;55.84;101742.47;5052282;28;20021;-66
2021/09/08 05:27:36;;;;;;;8.90;6.28;;;;;;;21.32;56.17;101728.88;5051537;28;20273;-68
2021/09/08 05:30:03;;;;;;;9.43;6.13;;;;;;;21.36;56.21;101730.28;5051765;28;20037;-68
2021/09/08 05:32:28;;;;;;;9.15;6.57;;;;;;;21.38;56.23;101731.03;5052032;28;20807;-69
2021/09/08 05:34:56;;;;;;;10.27;6.93;;;;;;;21.38;56.12;101739.81;5050766;28;20029;-69
2021/09/08 05:37:21;;;;;;;9.55;6.32;;;;;;;21.37;56.06;101730.16;5052574;28;20139;-67
2021/09/08 05:39:46;;;;;;;9.40;6.18;;;;;;;21.37;56.22;101727.53;5052149;28;20025;-68
2021/09/08 05:42:11;;;;;;;8.73;5.50;;;;;;;21.37;56.16;101732.00;5050927;28;20025;-68
2021/09/08 05:44:37;;;;;;;9.00;6.53;;;;;;;21.35;56.14;101724.16;5051987;28;20306;-69
2021/09/08 05:47:02;;;;;;;9.47;6.00;;;;;;;21.36;56.12;101736.47;5051186;28;20088;-68
2021/09/08 05:49:27;;;;;;;8.35;6.03;;;;;;;21.36;56.13;101728.50;5051000;28;20290;-67
2021/09/08 05:51:53;;;;;;;8.82;5.80;;;;;;;21.36;56.20;101728.50;5051789;28;20021;-68
2021/09/08 05:54:18;;;;;;;7.72;5.97;;;;;;;21.36;56.00;101728.50;5052099;28;20547;-68
2021/09/08 05:56:43;;;;;;;9.07;6.47;;;;;;;21.37;56.05;101735.47;5051132;28;20025;-66
2021/09/08 05:59:09;;;;;;;8.53;5.97;;;;;;;21.36;56.12;101731.16;5051494;28;20507;-68
2021/09/08 06:01:34;;;;;;;8.10;5.53;;;;;;;21.38;56.13;101731.03;5051892;28;20274;-68
2021/09/08 06:03:59;;;;;;;8.47;5.97;;;;;;;21.37;56.16;101726.69;5051119;28;20025;-68
2021/09/08 06:06:30;;;;;;;9.70;6.37;;;;;;;21.37;56.20;101734.63;5051985;28;20350;-68
2021/09/08 06:08:55;;;;;;;9.95;6.65;;;;;;;21.37;56.20;101724.88;5050825;28;20400;-68
2021/09/08 06:11:21;;;;;;;9.07;6.10;;;;;;;21.37;56.00;101724.03;5051645;28;20022;-69
2021/09/08 06:13:46;;;;;;;9.18;6.32;;;;;;;21.37;56.06;101714.25;5051908;28;20024;-68
2021/09/08 06:16:11;;;;;;;8.80;6.10;;;;;;;21.33;56.13;101718.16;5050874;28;20078;-69
2021/09/08 06:18:37;;;;;;;8.50;5.97;;;;;;;21.36;56.38;101723.19;5051788;28;20033;-68
2021/09/08 06:21:08;;;;;;;8.93;6.13;;;;;;;21.37;56.33;101722.22;5051713;28;20766;-68
2021/09/08 06:23:33;;;;;;;9.75;6.25;;;;;;;21.37;56.22;101724.03;5051049;28;20106;-68
2021/09/08 06:25:58;;;;;;;8.73;6.10;;;;;;;21.38;56.15;101720.44;5051608;28;20052;-68
2021/09/08 06:28:26;;;;;;;8.97;6.43;;;;;;;21.37;56.42;101722.22;5051717;28;20033;-66
2021/09/08 06:30:52;;;;;;;8.05;5.63;;;;;;;21.38;56.40;101723.06;5050812;28;20276;-66
2021/09/08 06:33:20;;;;;;;9.13;6.27;;;;;;;21.38;56.46;101718.59;5052015;28;20108;-67
2021/09/08 06:35:45;;;;;;;9.82;6.45;;;;;;;21.39;56.39;101722.09;5052007;28;20273;-65
2021/09/08 06:38:10;;;;;;;8.95;6.55;;;;;;;21.37;56.21;101722.22;5050706;28;20028;-67
2021/09/08 06:40:36;;;;;;;9.70;6.33;;;;;;;21.37;56.36;101718.72;5051680;28;20103;-65
2021/09/08 06:43:01;;;;;;;9.38;6.50;;;;;;;21.36;56.56;101712.59;5051455;28;20262;-66
2021/09/08 06:45:26;;;;;;;8.82;6.07;;;;;;;21.40;56.89;101715.84;5051103;28;20411;-67
2021/09/08 06:47:52;;;;;;;10.55;6.20;;;;;;;21.42;56.73;101713.88;5051221;28;20041;-66
2021/09/08 06:50:17;;;;;;;9.23;6.68;;;;;;;21.41;57.00;101709.53;5051822;28;20032;-66
2021/09/08 06:52:42;;;;;;;8.73;6.18;;;;;;;21.45;57.04;101705.69;5051171;28;20051;-66
2021/09/08 06:55:08;;;;;;;9.45;6.18;;;;;;;21.47;57.30;101700.25;5051436;28;20017;-65
2021/09/08 06:57:33;;;;;;;8.23;6.35;;;;;;;21.45;57.37;101688.94;5052025;28;20392;-65
2021/09/08 06:59:58;;;;;;;8.60;6.05;;;;;;;21.49;57.18;101693.03;5050874;28;20025;-66
2021/09/08 07:02:24;;;;;;;9.13;6.15;;;;;;;21.51;57.05;101688.47;5051673;28;20051;-65
2021/09/08 07:04:49;;;;;;;10.85;7.10;;;;;;;21.50;57.25;101686.78;5051607;28;20036;-64
2021/09/08 07:07:14;;;;;;;9.30;6.47;;;;;;;21.54;57.11;101693.53;5050997;28;20028;-66
2021/09/08 07:09:40;;;;;;;10.15;7.07;;;;;;;21.55;57.01;101690.75;5051632;28;20055;-66
2021/09/08 07:12:10;;;;;;;11.55;7.00;;;;;;;21.56;57.13;101683.63;5050593;28;20029;-64
2021/09/08 07:14:35;;;;;;;9.73;6.80;;;;;;;21.55;56.93;101680.13;5051824;28;20090;-64
2021/09/08 07:17:03;;;;;;;8.80;6.90;;;;;;;21.58;56.94;101684.31;5051712;28;20453;-67
2021/09/08 07:19:28;;;;;;;9.48;6.75;;;;;;;21.60;56.90;101684.19;5050884;28;20027;-69
2021/09/08 07:21:53;;;;;;;9.48;6.10;;;;;;;21.58;56.82;101678.19;5051539;28;20025;-67
2021/09/08 07:24:19;;;;;;;8.68;6.32;;;;;;;21.60;56.85;101674.41;5053190;28;20109;-67
2021/09/08 07:26:44;;;;;;;9.25;6.00;;;;;;;21.61;56.92;101678.78;5054490;28;20098;-67
2021/09/08 07:29:09;;;;;;;11.13;6.88;;;;;;;21.62;56.84;101685.78;5054773;28;20028;-66
2021/09/08 07:31:35;;;;;;;10.15;6.80;;;;;;;21.63;57.15;101676.81;5056855;28;20025;-67
2021/09/08 07:34:00;;;;;;;8.02;5.90;;;;;;;21.68;57.45;101674.66;5055028;28;20021;-67
2021/09/08 07:36:26;;;;;;;9.30;6.30;;;;;;;21.71;57.53;101673.53;5055067;28;20025;-64
2021/09/08 07:38:52;;;;;;;9.23;6.47;;;;;;;21.75;57.42;101677.63;5054641;28;20025;-65
2021/09/08 07:41:19;;;;;;;9.15;6.50;;;;;;;21.74;57.34;101668.81;5054136;28;20025;-65
2021/09/08 07:43:44;;;;;;;10.02;6.55;;;;;;;21.76;57.46;101671.31;5054674;28;20032;-64
2021/09/08 07:46:11;;;;;;;10.40;6.88;;;;;;;21.78;57.15;101671.19;5054438;28;20459;-66
2021/09/08 07:48:37;;;;;;;9.40;6.78;;;;;;;21.80;57.34;101663.97;5054022;28;20039;-65
2021/09/08 07:51:02;;;;;;;11.18;6.45;;;;;;;21.80;57.27;101656.84;5054242;28;20461;-67
2021/09/08 07:53:27;;;;;;;9.27;6.82;;;;;;;21.82;57.28;101662.84;5054665;28;20028;-68
2021/09/08 07:55:55;;;;;;;9.30;6.63;;;;;;;21.83;57.23;101663.72;5053404;28;20029;-66
2021/09/08 07:58:21;;;;;;;9.57;6.82;;;;;;;21.85;57.29;101662.59;5054719;28;20541;-64
2021/09/08 08:00:46;;;;;;;11.07;6.25;;;;;;;21.87;57.17;101652.72;5055156;28;20124;-66
2021/09/08 08:03:11;;;;;;;9.48;6.43;;;;;;;21.88;57.11;101658.84;5053705;28;20021;-64
2021/09/08 08:05:37;;;;;;;10.52;6.50;;;;;;;21.88;57.37;101656.22;5054607;28;20048;-68
2021/09/08 08:08:02;;;;;;;11.00;6.50;;;;;;;21.91;57.48;101653.28;5053880;28;20047;-65
2021/09/08 08:10:29;;;;;;;10.15;6.40;;;;;;;21.94;57.27;101658.34;5053741;28;20021;-64
2021/09/08 08:12:54;;;;;;;11.55;7.63;;;;;;;21.95;57.25;101665.31;5053835;28;20025;-64
2021/09/08 08:15:20;;;;;;;9.02;6.18;;;;;;;21.97;57.51;101655.44;5053806;28;20170;-64
2021/09/08 08:17:51;;;;;;;8.65;6.22;;;;;;;21.95;57.27;101653.88;5054231;28;20515;-65
2021/09/08 08:20:18;;;;;;;8.68;5.95;;;;;;;21.99;57.45;101660.59;5054111;28;20033;-65
2021/09/08 08:22:44;;;;;;;9.82;6.03;;;;;;;21.98;57.23;101657.09;5053549;28;20024;-63
2021/09/08 08:25:15;;;;;;;9.52;6.50;;;;;;;21.97;57.32;101663.38;5053914;28;20427;-67
2021/09/08 08:27:43;;;;;;;7.80;5.78;;;;;;;21.96;56.98;101650.25;5054076;28;20052;-66
2021/09/08 08:30:10;;;;;;;9.00;6.22;;;;;;;;;;5053035;28;20040;-67
2021/09/08 08:32:35;;;;;;;8.80;6.32;;;;;;;21.95;56.95;101654.69;5053786;28;20028;-65
2021/09/08 08:35:00;;;;;;;9.90;6.50;;;;;;;21.96;57.07;101651.09;5053072;28;20021;-69
2021/09/08 08:37:26;;;;;;;9.93;6.50;;;;;;;21.98;57.38;101657.09;5053141;28;20039;-65
2021/09/08 08:39:51;;;;;;;9.35;6.22;;;;;;;22.00;57.33;101660.47;5054012;28;20025;-70
2021/09/08 08:42:27;;;;;;;9.52;6.10;;;;;;;22.02;57.44;101658.53;5053887;28;20025;-67
2021/09/08 08:44:53;;;;;;;8.82;6.63;;;;;;;22.03;57.23;101652.25;5052558;28;20418;-66
2021/09/08 08:47:20;;;;;;;10.25;6.25;;;;;;;22.04;57.26;101653.91;5053251;28;20045;-69
2021/09/08 08:49:47;;;;;;;9.10;6.38;;;;;;;22.07;57.44;101653.66;5053747;28;20033;-67
2021/09/08 08:52:14;;;;;;;8.75;6.25;;;;;;;22.08;57.36;101650.03;5054512;28;20105;-68
2021/09/08 08:54:41;;;;;;;8.60;5.72;;;;;;;22.09;57.23;101653.53;5053207;28;20067;-68
2021/09/08 08:57:10;;;;;;;7.28;5.35;;;;;;;22.10;57.32;101656.06;5053343;28;20024;-68
2021/09/08 08:59:40;;;;;;;8.40;5.72;;;;;;;22.12;57.03;101657.75;5052257;28;20021;-66
2021/09/08 09:02:36;;;;;;;8.93;6.18;;;;;;;22.12;57.29;101655.09;5052730;28;20021;-65
2021/09/08 09:05:05;;;;;;;9.00;5.95;;;;;;;22.12;57.14;101645.31;5051505;28;20072;-66
2021/09/08 09:07:34;;;;;;;8.48;5.80;;;;;;;22.11;57.25;101646.25;5053284;28;20047;-66
2021/09/08 09:10:14;;;;;;;9.43;5.88;;;;;;;22.13;57.08;101649.66;5053248;28;20507;-68
2021/09/08 09:12:42;;;;;;;9.65;6.47;;;;;;;22.13;57.12;101649.66;5052417;28;20029;-67
2021/09/08 09:15:15;;;;;;;8.70;5.68;;;;;;;22.15;57.39;101642.38;5053331;28;20112;-63
2021/09/08 09:17:41;;;;;;;8.43;6.22;;;;;;;22.14;57.14;101655.78;5052866;28;20402;-66
2021/09/08 09:20:08;;;;;;;10.35;6.85;;;;;;;22.14;57.24;101650.47;5051766;28;20177;-65
2021/09/08 09:22:43;;;;;;;11.00;6.32;;;;;;;22.13;57.35;101651.44;5053021;28;20033;-66
2021/09/08 09:25:10;;;;;;;8.52;5.90;;;;;;;22.09;57.31;101654.34;5052543;28;20021;-66
2021/09/08 09:27:38;;;;;;;10.95;6.40;;;;;;;22.08;57.22;101639.44;5051992;28;20025;-66
2021/09/08 09:30:12;;;;;;;7.93;5.97;;;;;;;22.08;57.06;101644.72;5052100;28;20033;-67
2021/09/08 09:32:39;;;;;;;;;;;;;;;22.06;57.50;101645.81;5052862;28;20049;-67
2021/09/08 09:35:06;;;;;;;7.72;5.57;;;;;;;22.05;57.26;101637.03;5052315;28;20252;-66
2021/09/08 09:37:33;;;;;;;8.40;5.93;;;;;;;22.03;57.43;101636.34;5052733;28;20047;-65
2021/09/08 09:40:04;;;;;;;8.95;6.35;;;;;;;22.00;57.17;101633.06;5051564;28;20039;-66
2021/09/08 09:42:31;;;;;;;9.40;6.00;;;;;;;22.02;57.48;101642.59;5052295;28;20032;-66
2021/09/08 09:45:09;;;;;;;9.50;6.13;;;;;;;21.99;57.29;101629.59;5052429;28;20349;-66
2021/09/08 09:47:45;;;;;;;9.13;5.88;;;;;;;22.02;57.15;101639.13;5050850;28;20041;-66
2021/09/08 09:50:17;;;;;;;8.68;5.40;;;;;;;22.02;57.36;101625.84;5052167;28;20025;-66
2021/09/08 09:52:48;;;;;;;9.18;5.28;;;;;;;22.01;57.17;101622.34;5052407;28;20104;-66
2021/09/08 09:55:16;;;;;;;8.20;5.68;;;;;;;22.01;57.31;101616.19;5051591;28;20028;-66
2021/09/08 09:57:44;;;;;;;8.27;6.03;;;;;;;22.01;57.41;101617.03;5052600;28;20430;-67
2021/09/08 10:00:10;;;;;;;8.80;6.18;;;;;;;22.01;56.83;101610.88;5052225;28;20056;-66
2021/09/08 10:02:35;;;;;;;7.93;5.65;;;;;;;22.01;57.32;101610.88;5051722;28;20437;-66
2021/09/08 10:05:01;;;;;;;9.25;5.47;;;;;;;22.00;57.39;101607.41;5052108;28;20086;-66
2021/09/08 10:07:27;;;;;;;8.10;5.95;;;;;;;22.00;57.31;101603.88;5052244;28;20128;-69
2021/09/08 10:09:58;;;;;;;8.20;5.82;;;;;;;22.00;57.16;101599.44;5051434;28;20112;-70
2021/09/08 10:12:30;;;;;;;8.88;6.00;;;;;;;22.01;57.03;101602.91;5052447;28;20082;-71
2021/09/08 10:14:56;;;;;;;8.50;5.97;;;;;;;22.01;57.18;101592.31;5051393;28;20025;-70
2021/09/08 10:17:24;;;;;;;8.25;5.80;;;;;;;22.00;57.19;101587.97;5052231;28;20028;-68
2021/09/08 10:20:01;;;;;;;9.15;6.22;;;;;;;22.03;57.22;101591.22;5052827;28;20025;-67
2021/09/08 10:22:26;;;;;;;9.05;6.38;;;;;;;22.04;57.28;101587.56;5052657;28;20029;-66
2021/09/08 10:24:54;;;;;;;9.80;6.35;;;;;;;22.05;57.19;101588.44;5052401;28;20104;-68
2021/09/08 10:27:27;;;;;;;9.75;6.28;;;;;;;22.06;57.06;101583.00;5052538;28;20068;-69
2021/09/08 10:29:54;;;;;;;9.88;5.97;;;;;;;22.04;57.12;101578.78;5051439;28;20056;-68
2021/09/08 10:32:20;;;;;;;9.15;6.30;;;;;;;22.07;57.16;101565.22;5052638;28;20073;-67
2021/09/08 10:34:50;;;;;;;9.05;6.68;;;;;;;22.09;57.28;101572.06;5052222;28;20565;-67
2021/09/08 10:37:18;;;;;;;8.85;6.72;;;;;;;22.12;57.42;101564.84;5051855;28;20041;-66
2021/09/08 10:39:46;;;;;;;12.63;7.22;;;;;;;22.15;57.20;101564.56;5052474;28;20126;-65
2021/09/08 10:42:11;;;;;;;11.07;7.25;;;;;;;22.16;56.92;101560.94;5051713;28;20457;-67
2021/09/08 10:45:15;;;;;;;10.23;6.82;;;;;;;22.20;56.81;101557.03;5050984;28;20025;-66
2021/09/08 10:47:40;;;;;;;10.25;6.82;;;;;;;22.20;56.96;101554.38;5051121;28;20045;-65
2021/09/08 10:50:06;;;;;;;9.47;6.43;;;;;;;22.18;56.63;101551.88;5051071;28;20083;-67
2021/09/08 10:52:40;;;;;;;11.40;7.13;;;;;;;22.21;56.79;101553.44;5052261;28;20274;-67
2021/09/08 10:55:08;;;;;;;10.30;7.07;;;;;;;22.22;56.93;101539.16;5051711;28;20444;-66
2021/09/08 10:57:42;;;;;;;10.52;7.72;;;;;;;22.23;56.93;101538.19;5051365;28;20033;-66
2021/09/08 11:00:12;;;;;;;9.88;7.38;;;;;;;22.24;56.94;101539.88;5055170;28;20032;-66
2021/09/08 11:02:46;;;;;;;10.80;7.22;;;;;;;22.25;56.82;101537.06;5055657;28;20033;-66
2021/09/08 11:05:12;;;;;;;;;;;;;;;22.27;56.93;101536.94;5055004;28;20025;-66
2021/09/08 11:07:41;;;;;;;9.90;7.22;;;;;;;22.26;57.07;101529.97;5055501;28;20329;-67
2021/09/08 11:10:08;;;;;;;10.23;7.50;;;;;;;22.31;57.10;101529.59;5054968;28;20115;-66
2021/09/08 11:12:50;;;;;;;10.77;7.65;;;;;;;22.32;57.16;101523.28;5054719;28;20082;-67
2021/09/08 11:15:18;;;;;;;10.30;7.35;;;;;;;22.26;57.05;101506.88;5055255;28;20503;-67
2021/09/08 11:17:51;;;;;;;9.88;7.35;;;;;;;22.31;56.74;101517.13;5055252;28;20028;-67
2021/09/08 11:20:17;;;;;;;11.67;7.43;;;;;;;22.32;56.82;101504.69;5055022;28;20039;-67
2021/09/08 11:23:00;;;;;;;10.80;7.22;;;;;;;22.37;56.52;101515.75;5054932;28;20031;-65